Wing, North Dakota
Current Conditions -  °F | °C
As of 2:52 AM on Wednesday 26 Nov 2014 (Local Time) from KBIS Reporting Station
Overcast Overcast  
Wind Chill: -1°   Ceiling: 2600
Heat Index: 13°   Visibility: 10mi
Dew Point:   Wind: 12mph
Humidity: 77%   Direction: 350°N
Pressure: 30.24"   Gusts: NA
Location:  47.14°N, 100.28°W
Report Text: KBIS 260852Z AUTO 35010KT 10SM OVC026 M11/M14 A3024 RMK AO2 SLP268 T11061139 53036
Loading
Personal Weather Stations






























Interactive Weather Map New forecast layout! Learn more

10-Day Weather Forecast

Advertisements
Track Severe Weather on mobile